sensor_id;sensor_type;location;lat;lon;timestamp;temperature;humidity
67890;DHT22;54685;52.082;5.426;2023-02-01T00:00:29;4.80;99.90
67890;DHT22;54685;52.082;5.426;2023-02-01T00:02:56;4.90;99.90
67890;DHT22;54685;52.082;5.426;2023-02-01T00:05:23;4.90;99.90
67890;DHT22;54685;52.082;5.426;2023-02-01T00:07:50;4.90;99.90
67890;DHT22;54685;52.082;5.426;2023-02-01T00:10:17;4.90;99.90
67890;DHT22;54685;52.082;5.426;2023-02-01T00:12:44;4.90;99.90
67890;DHT22;54685;52.082;5.426;2023-02-01T00:15:11;5.00;99.90
67890;DHT22;54685;52.082;5.426;2023-02-01T00:17:37;4.90;99.90
67890;DHT22;54685;52.082;5.426;2023-02-01T00:20:05;4.90;99.90
67890;DHT22;54685;52.082;5.426;2023-02-01T00:22:31;5.00;99.90
67890;DHT22;54685;52.082;5.426;2023-02-01T00:24:58;5.00;99.90
67890;DHT22;54685;52.082;5.426;2023-02-01T00:27:25;5.00;99.90
67890;DHT22;54685;52.082;5.426;2023-02-01T00:29:54;5.00;99.90
67890;DHT22;54685;52.082;5.426;2023-02-01T00:32:21;5.00;99.90
67890;DHT22;54685;52.082;5.426;2023-02-01T00:34:51;5.10;99.90
67890;DHT22;54685;52.082;5.426;2023-02-01T00:37:18;5.10;99.90
67890;DHT22;54685;52.082;5.426;2023-02-01T00:39:44;5.10;99.90
67890;DHT22;54685;52.082;5.426;2023-02-01T00:42:14;5.20;99.90
67890;DHT22;54685;52.082;5.426;2023-02-01T00:44:40;5.30;99.90
67890;DHT22;54685;52.082;5.426;2023-02-01T00:47:07;5.30;99.90
67890;DHT22;54685;52.082;5.426;2023-02-01T00:49:34;5.40;99.90
67890;DHT22;54685;52.082;5.426;2023-02-01T00:52:01;5.40;99.90
67890;DHT22;54685;52.082;5.426;2023-02-01T00:54:28;5.30;99.90
67890;DHT22;54685;52.082;5.426;2023-02-01T00:56:55;5.40;99.90
67890;DHT22;54685;52.082;5.426;2023-02-01T00:59:21;5.30;99.90
67890;DHT22;54685;52.082;5.426;2023-02-01T01:01:48;5.40;99.90
67890;DHT22;54685;52.082;5.426;2023-02-01T01:04:15;5.40;99.90
67890;DHT22;54685;52.082;5.426;2023-02-01T01:06:49;5.40;99.90
67890;DHT22;54685;52.082;5.426;2023-02-01T01:09:16;5.50;99.90
67890;DHT22;54685;52.082;5.426;2023-02-01T01:11:42;5.40;99.90
67890;DHT22;54685;52.082;5.426;2023-02-01T01:14:10;5.50;99.90
67890;DHT22;54685;52.082;5.426;2023-02-01T01:16:37;5.50;99.90
67890;DHT22;54685;52.082;5.426;2023-02-01T01:19:04;5.60;99.90
67890;DHT22;54685;52.082;5.426;2023-02-01T01:21:31;5.70;99.90
67890;DHT22;54685;52.082;5.426;2023-02-01T01:23:58;5.70;99.90
67890;DHT22;54685;52.082;5.426;2023-02-01T01:26:28;5.70;99.90
67890;DHT22;54685;52.082;5.426;2023-02-01T01:28:57;5.70;99.90
67890;DHT22;54685;52.082;5.426;2023-02-01T01:31:25;5.70;99.90
67890;DHT22;54685;52.082;5.426;2023-02-01T01:33:57;5.80;99.90
67890;DHT22;54685;52.082;5.426;2023-02-01T01:36:28;5.80;99.90
67890;DHT22;54685;52.082;5.426;2023-02-01T01:38:55;5.70;99.90
67890;DHT22;54685;52.082;5.426;2023-02-01T01:41:25;5.70;99.90
67890;DHT22;54685;52.082;5.426;2023-02-01T01:43:59;5.80;99.90
67890;DHT22;54685;52.082;5.426;2023-02-01T01:49:14;5.80;99.90
67890;DHT22;54685;52.082;5.426;2023-02-01T01:51:53;5.80;99.90
67890;DHT22;54685;52.082;5.426;2023-02-01T01:57:27;5.80;99.90
67890;DHT22;54685;52.082;5.426;2023-02-01T02:00:06;5.90;99.90
67890;DHT22;54685;52.082;5.426;2023-02-01T02:02:57;5.80;99.90
67890;DHT22;54685;52.082;5.426;2023-02-01T02:05:25;5.90;99.90
67890;DHT22;54685;52.082;5.426;2023-02-01T02:07:53;5.90;99.90
67890;DHT22;54685;52.082;5.426;2023-02-01T02:10:23;5.90;99.90
67890;DHT22;54685;52.082;5.426;2023-02-01T02:13:10;6.00;99.90
67890;DHT22;54685;52.082;5.426;2023-02-01T02:15:44;6.00;99.90
67890;DHT22;54685;52.082;5.426;2023-02-01T02:18:21;6.00;99.90
67890;DHT22;54685;52.082;5.426;2023-02-01T02:21:02;6.00;99.90
67890;DHT22;54685;52.082;5.426;2023-02-01T02:32:26;6.10;99.90
67890;DHT22;54685;52.082;5.426;2023-02-01T02:37:32;6.20;99.90
67890;DHT22;54685;52.082;5.426;2023-02-01T02:40:33;6.20;99.90
67890;DHT22;54685;52.082;5.426;2023-02-01T02:46:33;6.20;99.90
67890;DHT22;54685;52.082;5.426;2023-02-01T02:49:12;6.30;99.90
67890;DHT22;54685;52.082;5.426;2023-02-01T02:51:56;6.30;99.90
67890;DHT22;54685;52.082;5.426;2023-02-01T02:54:47;6.30;99.90
67890;DHT22;54685;52.082;5.426;2023-02-01T02:57:23;6.40;99.90
67890;DHT22;54685;52.082;5.426;2023-02-01T03:00:12;6.40;99.90
67890;DHT22;54685;52.082;5.426;2023-02-01T03:03:00;6.40;99.90
67890;DHT22;54685;52.082;5.426;2023-02-01T03:05:48;6.40;99.90
67890;DHT22;54685;52.082;5.426;2023-02-01T03:08:19;6.50;99.90
67890;DHT22;54685;52.082;5.426;2023-02-01T03:13:25;6.50;99.90
67890;DHT22;54685;52.082;5.426;2023-02-01T03:21:53;6.60;99.90
67890;DHT22;54685;52.082;5.426;2023-02-01T03:32:34;6.40;99.90
67890;DHT22;54685;52.082;5.426;2023-02-01T03:35:50;6.40;99.90
67890;DHT22;54685;52.082;5.426;2023-02-01T03:38:23;6.40;99.90
67890;DHT22;54685;52.082;5.426;2023-02-01T03:41:12;6.30;99.90
67890;DHT22;54685;52.082;5.426;2023-02-01T03:44:12;6.30;99.90
67890;DHT22;54685;52.082;5.426;2023-02-01T03:46:49;6.30;99.90
67890;DHT22;54685;52.082;5.426;2023-02-01T03:49:27;6.30;99.90
67890;DHT22;54685;52.082;5.426;2023-02-01T03:51:59;6.30;99.90
67890;DHT22;54685;52.082;5.426;2023-02-01T03:54:28;6.20;99.90
67890;DHT22;54685;52.082;5.426;2023-02-01T03:56:59;6.20;99.90
67890;DHT22;54685;52.082;5.426;2023-02-01T03:59:26;6.20;99.90
67890;DHT22;54685;52.082;5.426;2023-02-01T04:01:53;6.30;99.90
67890;DHT22;54685;52.082;5.426;2023-02-01T04:04:20;6.30;99.90
67890;DHT22;54685;52.082;5.426;2023-02-01T04:06:50;6.30;99.90
67890;DHT22;54685;52.082;5.426;2023-02-01T04:09:18;6.30;99.90
67890;DHT22;54685;52.082;5.426;2023-02-01T04:11:45;6.30;99.90
67890;DHT22;54685;52.082;5.426;2023-02-01T04:14:12;6.30;99.90
67890;DHT22;54685;52.082;5.426;2023-02-01T04:16:38;6.40;99.90
67890;DHT22;54685;52.082;5.426;2023-02-01T04:19:06;6.30;99.90
67890;DHT22;54685;52.082;5.426;2023-02-01T04:21:33;6.40;99.90
67890;DHT22;54685;52.082;5.426;2023-02-01T04:24:00;6.40;99.90
67890;DHT22;54685;52.082;5.426;2023-02-01T04:26:26;6.40;99.90
67890;DHT22;54685;52.082;5.426;2023-02-01T04:28:53;6.40;99.90
67890;DHT22;54685;52.082;5.426;2023-02-01T04:31:20;6.40;99.90
67890;DHT22;54685;52.082;5.426;2023-02-01T04:33:53;6.50;99.90
67890;DHT22;54685;52.082;5.426;2023-02-01T04:36:21;6.50;99.90
67890;DHT22;54685;52.082;5.426;2023-02-01T04:38:51;6.50;99.90
67890;DHT22;54685;52.082;5.426;2023-02-01T04:41:19;6.60;99.90
67890;DHT22;54685;52.082;5.426;2023-02-01T04:43:50;6.60;99.90
67890;DHT22;54685;52.082;5.426;2023-02-01T04:46:17;6.60;99.90
67890;DHT22;54685;52.082;5.426;2023-02-01T04:48:44;6.60;99.90
67890;DHT22;54685;52.082;5.426;2023-02-01T04:51:11;6.50;99.90
67890;DHT22;54685;52.082;5.426;2023-02-01T04:53:38;6.60;99.90
67890;DHT22;54685;52.082;5.426;2023-02-01T04:56:05;6.60;99.90
67890;DHT22;54685;52.082;5.426;2023-02-01T04:58:32;6.50;99.90
67890;DHT22;54685;52.082;5.426;2023-02-01T05:01:02;6.50;99.90
67890;DHT22;54685;52.082;5.426;2023-02-01T05:03:32;6.50;99.90
67890;DHT22;54685;52.082;5.426;2023-02-01T05:05:59;6.50;99.90
67890;DHT22;54685;52.082;5.426;2023-02-01T05:08:26;6.50;99.90
67890;DHT22;54685;52.082;5.426;2023-02-01T05:10:53;6.50;99.90
67890;DHT22;54685;52.082;5.426;2023-02-01T05:13:20;6.50;99.90
67890;DHT22;54685;52.082;5.426;2023-02-01T05:16:05;6.50;99.90
67890;DHT22;54685;52.082;5.426;2023-02-01T05:18:36;6.50;99.90
67890;DHT22;54685;52.082;5.426;2023-02-01T05:21:04;6.40;99.90
67890;DHT22;54685;52.082;5.426;2023-02-01T05:23:31;6.40;99.90
67890;DHT22;54685;52.082;5.426;2023-02-01T05:25:59;6.40;99.90
67890;DHT22;54685;52.082;5.426;2023-02-01T05:28:27;6.40;99.90
67890;DHT22;54685;52.082;5.426;2023-02-01T05:30:54;6.40;99.90
67890;DHT22;54685;52.082;5.426;2023-02-01T05:33:21;6.40;99.90
67890;DHT22;54685;52.082;5.426;2023-02-01T05:35:47;6.40;99.90
67890;DHT22;54685;52.082;5.426;2023-02-01T05:38:14;6.40;99.90
67890;DHT22;54685;52.082;5.426;2023-02-01T05:40:41;6.40;99.90
67890;DHT22;54685;52.082;5.426;2023-02-01T05:43:09;6.50;99.90
67890;DHT22;54685;52.082;5.426;2023-02-01T05:45:35;6.50;99.90
67890;DHT22;54685;52.082;5.426;2023-02-01T05:48:02;6.50;99.90
67890;DHT22;54685;52.082;5.426;2023-02-01T05:50:32;6.50;99.90
67890;DHT22;54685;52.082;5.426;2023-02-01T05:53:07;6.50;99.90
67890;DHT22;54685;52.082;5.426;2023-02-01T05:55:37;6.50;99.90
67890;DHT22;54685;52.082;5.426;2023-02-01T05:58:05;6.50;99.90
67890;DHT22;54685;52.082;5.426;2023-02-01T06:00:32;6.50;99.90
67890;DHT22;54685;52.082;5.426;2023-02-01T06:02:58;6.60;99.90
67890;DHT22;54685;52.082;5.426;2023-02-01T06:05:25;6.50;99.90
67890;DHT22;54685;52.082;5.426;2023-02-01T06:07:52;6.50;99.90
67890;DHT22;54685;52.082;5.426;2023-02-01T06:10:19;6.50;99.90
67890;DHT22;54685;52.082;5.426;2023-02-01T06:12:47;6.50;99.90
67890;DHT22;54685;52.082;5.426;2023-02-01T06:15:15;6.60;99.90
67890;DHT22;54685;52.082;5.426;2023-02-01T06:17:44;6.60;99.90
67890;DHT22;54685;52.082;5.426;2023-02-01T06:20:12;6.50;99.90
67890;DHT22;54685;52.082;5.426;2023-02-01T06:22:40;6.60;99.90
67890;DHT22;54685;52.082;5.426;2023-02-01T06:25:08;6.60;99.90
67890;DHT22;54685;52.082;5.426;2023-02-01T06:27:35;6.60;99.90
67890;DHT22;54685;52.082;5.426;2023-02-01T06:30:04;6.60;99.90
67890;DHT22;54685;52.082;5.426;2023-02-01T06:32:33;6.60;99.90
67890;DHT22;54685;52.082;5.426;2023-02-01T06:35:03;6.60;99.90
67890;DHT22;54685;52.082;5.426;2023-02-01T06:37:30;6.60;99.90
67890;DHT22;54685;52.082;5.426;2023-02-01T06:39:57;6.50;99.90
67890;DHT22;54685;52.082;5.426;2023-02-01T06:42:24;6.40;99.90
67890;DHT22;54685;52.082;5.426;2023-02-01T06:44:51;6.40;99.90
67890;DHT22;54685;52.082;5.426;2023-02-01T06:47:18;6.30;99.90
67890;DHT22;54685;52.082;5.426;2023-02-01T06:49:48;6.30;99.90
67890;DHT22;54685;52.082;5.426;2023-02-01T06:52:14;6.30;99.90
67890;DHT22;54685;52.082;5.426;2023-02-01T06:54:41;6.30;99.90
67890;DHT22;54685;52.082;5.426;2023-02-01T06:57:08;6.20;99.90
67890;DHT22;54685;52.082;5.426;2023-02-01T06:59:34;6.10;99.90
67890;DHT22;54685;52.082;5.426;2023-02-01T07:02:01;6.20;99.90
67890;DHT22;54685;52.082;5.426;2023-02-01T07:04:35;6.20;99.90
67890;DHT22;54685;52.082;5.426;2023-02-01T07:07:02;6.20;99.90
67890;DHT22;54685;52.082;5.426;2023-02-01T07:09:29;6.20;99.90
67890;DHT22;54685;52.082;5.426;2023-02-01T07:12:00;6.30;99.90
67890;DHT22;54685;52.082;5.426;2023-02-01T07:14:26;6.20;99.90
67890;DHT22;54685;52.082;5.426;2023-02-01T07:16:53;6.20;99.90
67890;DHT22;54685;52.082;5.426;2023-02-01T07:19:20;6.30;99.90
67890;DHT22;54685;52.082;5.426;2023-02-01T07:21:47;6.40;99.90
67890;DHT22;54685;52.082;5.426;2023-02-01T07:24:13;6.40;99.90
67890;DHT22;54685;52.082;5.426;2023-02-01T07:26:41;6.40;99.90
67890;DHT22;54685;52.082;5.426;2023-02-01T07:29:08;6.40;99.90
67890;DHT22;54685;52.082;5.426;2023-02-01T07:31:35;6.40;99.90
67890;DHT22;54685;52.082;5.426;2023-02-01T07:34:02;6.30;99.90
67890;DHT22;54685;52.082;5.426;2023-02-01T07:36:30;6.30;99.90
67890;DHT22;54685;52.082;5.426;2023-02-01T07:38:57;6.40;99.90
67890;DHT22;54685;52.082;5.426;2023-02-01T07:41:24;6.40;99.90
67890;DHT22;54685;52.082;5.426;2023-02-01T07:43:57;6.40;99.90
67890;DHT22;54685;52.082;5.426;2023-02-01T07:46:25;6.40;99.90
67890;DHT22;54685;52.082;5.426;2023-02-01T07:48:52;6.40;99.90
67890;DHT22;54685;52.082;5.426;2023-02-01T07:51:18;6.30;99.90
67890;DHT22;54685;52.082;5.426;2023-02-01T07:53:45;6.30;99.90
67890;DHT22;54685;52.082;5.426;2023-02-01T07:56:17;6.30;99.90
67890;DHT22;54685;52.082;5.426;2023-02-01T07:58:52;6.30;99.90
67890;DHT22;54685;52.082;5.426;2023-02-01T08:01:21;6.40;99.90
67890;DHT22;54685;52.082;5.426;2023-02-01T08:03:58;6.40;99.90
67890;DHT22;54685;52.082;5.426;2023-02-01T08:06:33;6.40;99.90
67890;DHT22;54685;52.082;5.426;2023-02-01T08:09:01;6.40;99.90
67890;DHT22;54685;52.082;5.426;2023-02-01T08:11:28;6.40;99.90
67890;DHT22;54685;52.082;5.426;2023-02-01T08:13:58;6.40;99.90
67890;DHT22;54685;52.082;5.426;2023-02-01T08:16:26;6.40;99.90
67890;DHT22;54685;52.082;5.426;2023-02-01T08:18:53;6.40;99.90
67890;DHT22;54685;52.082;5.426;2023-02-01T08:21:26;6.40;99.90
67890;DHT22;54685;52.082;5.426;2023-02-01T08:23:57;6.40;99.90
67890;DHT22;54685;52.082;5.426;2023-02-01T08:26:25;6.40;99.90
67890;DHT22;54685;52.082;5.426;2023-02-01T08:28:57;6.40;99.90
67890;DHT22;54685;52.082;5.426;2023-02-01T08:31:27;6.40;99.90
67890;DHT22;54685;52.082;5.426;2023-02-01T08:34:00;6.40;99.90
67890;DHT22;54685;52.082;5.426;2023-02-01T08:36:29;6.50;99.90
67890;DHT22;54685;52.082;5.426;2023-02-01T08:38:56;6.40;99.90
67890;DHT22;54685;52.082;5.426;2023-02-01T08:41:26;6.40;99.90
67890;DHT22;54685;52.082;5.426;2023-02-01T08:43:53;6.50;99.90
67890;DHT22;54685;52.082;5.426;2023-02-01T08:46:21;6.50;99.90
67890;DHT22;54685;52.082;5.426;2023-02-01T08:48:49;6.60;99.90
67890;DHT22;54685;52.082;5.426;2023-02-01T08:51:18;6.50;99.90
67890;DHT22;54685;52.082;5.426;2023-02-01T08:53:46;6.60;99.90
67890;DHT22;54685;52.082;5.426;2023-02-01T08:56:15;6.60;99.90
67890;DHT22;54685;52.082;5.426;2023-02-01T08:58:43;6.70;99.90
67890;DHT22;54685;52.082;5.426;2023-02-01T09:01:11;6.70;99.90
67890;DHT22;54685;52.082;5.426;2023-02-01T09:03:40;6.70;99.90
67890;DHT22;54685;52.082;5.426;2023-02-01T09:06:09;6.70;99.90
67890;DHT22;54685;52.082;5.426;2023-02-01T09:08:37;6.80;99.90
67890;DHT22;54685;52.082;5.426;2023-02-01T09:11:07;6.80;99.90
67890;DHT22;54685;52.082;5.426;2023-02-01T09:13:34;6.90;99.90
67890;DHT22;54685;52.082;5.426;2023-02-01T09:16:02;6.90;99.90
67890;DHT22;54685;52.082;5.426;2023-02-01T09:18:30;7.00;99.90
67890;DHT22;54685;52.082;5.426;2023-02-01T09:20:57;7.10;99.90
67890;DHT22;54685;52.082;5.426;2023-02-01T09:23:24;7.10;99.90
67890;DHT22;54685;52.082;5.426;2023-02-01T09:25:50;7.20;99.90
67890;DHT22;54685;52.082;5.426;2023-02-01T09:28:18;7.30;99.90
67890;DHT22;54685;52.082;5.426;2023-02-01T09:30:45;7.40;99.90
67890;DHT22;54685;52.082;5.426;2023-02-01T09:33:12;7.40;99.90
67890;DHT22;54685;52.082;5.426;2023-02-01T09:35:39;7.50;99.90
67890;DHT22;54685;52.082;5.426;2023-02-01T09:38:06;7.50;99.90
67890;DHT22;54685;52.082;5.426;2023-02-01T09:40:34;7.50;99.90
67890;DHT22;54685;52.082;5.426;2023-02-01T09:48:42;7.50;99.90
67890;DHT22;54685;52.082;5.426;2023-02-01T09:51:24;7.50;99.90
67890;DHT22;54685;52.082;5.426;2023-02-01T09:54:01;7.40;99.90
67890;DHT22;54685;52.082;5.426;2023-02-01T09:56:41;7.40;99.90
67890;DHT22;54685;52.082;5.426;2023-02-01T09:59:49;7.40;99.90
67890;DHT22;54685;52.082;5.426;2023-02-01T10:02:22;7.40;99.90
67890;DHT22;54685;52.082;5.426;2023-02-01T10:04:57;7.40;99.90
67890;DHT22;54685;52.082;5.426;2023-02-01T10:07:27;7.50;99.90
67890;DHT22;54685;52.082;5.426;2023-02-01T10:10:15;7.40;99.90
67890;DHT22;54685;52.082;5.426;2023-02-01T10:15:40;7.50;99.90
67890;DHT22;54685;52.082;5.426;2023-02-01T10:21:36;7.40;99.90
67890;DHT22;54685;52.082;5.426;2023-02-01T10:27:12;7.40;99.90
67890;DHT22;54685;52.082;5.426;2023-02-01T10:29:42;7.30;99.90
67890;DHT22;54685;52.082;5.426;2023-02-01T10:32:18;7.20;99.90
67890;DHT22;54685;52.082;5.426;2023-02-01T10:34:57;7.20;99.90
67890;DHT22;54685;52.082;5.426;2023-02-01T10:37:31;7.00;99.90
67890;DHT22;54685;52.082;5.426;2023-02-01T10:42:37;6.90;99.90
67890;DHT22;54685;52.082;5.426;2023-02-01T10:45:06;6.90;99.90
67890;DHT22;54685;52.082;5.426;2023-02-01T10:47:33;6.90;99.90
67890;DHT22;54685;52.082;5.426;2023-02-01T10:53:03;7.10;99.90
67890;DHT22;54685;52.082;5.426;2023-02-01T10:58:29;7.00;99.90
67890;DHT22;54685;52.082;5.426;2023-02-01T11:01:02;7.00;99.90
67890;DHT22;54685;52.082;5.426;2023-02-01T11:03:39;7.10;99.90
67890;DHT22;54685;52.082;5.426;2023-02-01T11:08:49;7.20;99.90
67890;DHT22;54685;52.082;5.426;2023-02-01T11:11:17;7.30;99.90
67890;DHT22;54685;52.082;5.426;2023-02-01T11:13:55;7.30;99.90
67890;DHT22;54685;52.082;5.426;2023-02-01T11:16:35;7.40;99.90
67890;DHT22;54685;52.082;5.426;2023-02-01T11:19:03;7.40;99.90
67890;DHT22;54685;52.082;5.426;2023-02-01T11:21:31;7.40;99.90
67890;DHT22;54685;52.082;5.426;2023-02-01T11:24:03;7.50;99.90
67890;DHT22;54685;52.082;5.426;2023-02-01T11:26:31;7.50;99.90
67890;DHT22;54685;52.082;5.426;2023-02-01T11:29:08;7.40;99.90
67890;DHT22;54685;52.082;5.426;2023-02-01T11:31:36;7.40;99.90
67890;DHT22;54685;52.082;5.426;2023-02-01T11:34:13;7.40;99.90
67890;DHT22;54685;52.082;5.426;2023-02-01T11:36:41;7.50;99.90
67890;DHT22;54685;52.082;5.426;2023-02-01T11:44:37;7.50;99.90
67890;DHT22;54685;52.082;5.426;2023-02-01T11:50:12;7.60;99.90
67890;DHT22;54685;52.082;5.426;2023-02-01T11:52:53;7.60;99.90
67890;DHT22;54685;52.082;5.426;2023-02-01T12:17:39;8.20;99.90
67890;DHT22;54685;52.082;5.426;2023-02-01T12:23:18;8.30;99.90
67890;DHT22;54685;52.082;5.426;2023-02-01T12:26:09;8.30;99.90
67890;DHT22;54685;52.082;5.426;2023-02-01T12:29:03;8.30;99.90
67890;DHT22;54685;52.082;5.426;2023-02-01T12:31:48;8.30;99.90
67890;DHT22;54685;52.082;5.426;2023-02-01T12:42:46;8.20;99.90
67890;DHT22;54685;52.082;5.426;2023-02-01T12:45:25;8.20;99.90
67890;DHT22;54685;52.082;5.426;2023-02-01T12:48:26;8.20;99.90
67890;DHT22;54685;52.082;5.426;2023-02-01T12:50:56;8.20;99.90
67890;DHT22;54685;52.082;5.426;2023-02-01T12:54:09;8.20;99.90
67890;DHT22;54685;52.082;5.426;2023-02-01T12:56:30;8.20;99.90
67890;DHT22;54685;52.082;5.426;2023-02-01T12:59:04;8.10;99.90
67890;DHT22;54685;52.082;5.426;2023-02-01T13:01:52;8.20;99.90
67890;DHT22;54685;52.082;5.426;2023-02-01T13:04:42;8.20;99.90
67890;DHT22;54685;52.082;5.426;2023-02-01T13:07:21;8.20;99.90
67890;DHT22;54685;52.082;5.426;2023-02-01T13:09:57;8.20;99.90
67890;DHT22;54685;52.082;5.426;2023-02-01T13:12:40;8.30;99.90
67890;DHT22;54685;52.082;5.426;2023-02-01T13:15:19;8.30;99.90
67890;DHT22;54685;52.082;5.426;2023-02-01T13:17:47;8.30;99.90
67890;DHT22;54685;52.082;5.426;2023-02-01T13:20:36;8.20;99.90
67890;DHT22;54685;52.082;5.426;2023-02-01T13:23:08;8.30;99.90
67890;DHT22;54685;52.082;5.426;2023-02-01T13:25:51;8.20;99.90
67890;DHT22;54685;52.082;5.426;2023-02-01T13:28:42;8.20;99.90
67890;DHT22;54685;52.082;5.426;2023-02-01T13:37:23;8.20;99.90
67890;DHT22;54685;52.082;5.426;2023-02-01T13:42:30;8.20;99.90
67890;DHT22;54685;52.082;5.426;2023-02-01T13:45:12;8.30;99.90
67890;DHT22;54685;52.082;5.426;2023-02-01T13:47:43;8.20;99.90
67890;DHT22;54685;52.082;5.426;2023-02-01T13:50:27;8.20;99.90
67890;DHT22;54685;52.082;5.426;2023-02-01T13:53:03;8.30;99.90
67890;DHT22;54685;52.082;5.426;2023-02-01T13:55:41;8.30;99.90
67890;DHT22;54685;52.082;5.426;2023-02-01T13:58:13;8.30;99.90
67890;DHT22;54685;52.082;5.426;2023-02-01T14:00:42;8.30;99.90
67890;DHT22;54685;52.082;5.426;2023-02-01T14:03:18;8.30;99.90
67890;DHT22;54685;52.082;5.426;2023-02-01T14:08:21;8.40;99.90
67890;DHT22;54685;52.082;5.426;2023-02-01T14:10:54;8.40;99.90
67890;DHT22;54685;52.082;5.426;2023-02-01T14:13:39;8.40;99.90
67890;DHT22;54685;52.082;5.426;2023-02-01T14:37:24;8.40;99.90
67890;DHT22;54685;52.082;5.426;2023-02-01T14:40:04;8.40;99.90
67890;DHT22;54685;52.082;5.426;2023-02-01T14:42:50;8.30;99.90
67890;DHT22;54685;52.082;5.426;2023-02-01T14:47:54;8.30;99.90
67890;DHT22;54685;52.082;5.426;2023-02-01T14:58:55;8.30;99.90
67890;DHT22;54685;52.082;5.426;2023-02-01T15:01:28;8.30;99.90
67890;DHT22;54685;52.082;5.426;2023-02-01T15:06:39;8.30;99.90
67890;DHT22;54685;52.082;5.426;2023-02-01T15:09:19;8.30;99.90
67890;DHT22;54685;52.082;5.426;2023-02-01T15:12:08;8.30;99.90
67890;DHT22;54685;52.082;5.426;2023-02-01T15:14:43;8.30;99.90
67890;DHT22;54685;52.082;5.426;2023-02-01T15:17:25;8.30;99.90
67890;DHT22;54685;52.082;5.426;2023-02-01T15:19:58;8.30;99.90
67890;DHT22;54685;52.082;5.426;2023-02-01T15:22:26;8.30;99.90
67890;DHT22;54685;52.082;5.426;2023-02-01T15:24:59;8.30;99.90
67890;DHT22;54685;52.082;5.426;2023-02-01T15:27:27;8.30;99.90
67890;DHT22;54685;52.082;5.426;2023-02-01T15:29:54;8.30;99.90
67890;DHT22;54685;52.082;5.426;2023-02-01T15:32:39;8.30;99.90
67890;DHT22;54685;52.082;5.426;2023-02-01T15:41:06;8.30;99.90
67890;DHT22;54685;52.082;5.426;2023-02-01T15:46:30;8.40;99.90
67890;DHT22;54685;52.082;5.426;2023-02-01T15:48:57;8.30;99.90
67890;DHT22;54685;52.082;5.426;2023-02-01T15:51:27;8.40;99.90
67890;DHT22;54685;52.082;5.426;2023-02-01T15:53:57;8.30;99.90
67890;DHT22;54685;52.082;5.426;2023-02-01T15:56:27;8.30;99.90
67890;DHT22;54685;52.082;5.426;2023-02-01T15:59:02;8.30;99.90
67890;DHT22;54685;52.082;5.426;2023-02-01T16:01:30;8.30;99.90
67890;DHT22;54685;52.082;5.426;2023-02-01T16:04:21;8.40;99.90
67890;DHT22;54685;52.082;5.426;2023-02-01T16:06:54;8.40;99.90
67890;DHT22;54685;52.082;5.426;2023-02-01T16:09:24;8.40;99.90
67890;DHT22;54685;52.082;5.426;2023-02-01T16:11:56;8.40;99.90
67890;DHT22;54685;52.082;5.426;2023-02-01T16:14:23;8.40;99.90
67890;DHT22;54685;52.082;5.426;2023-02-01T16:16:51;8.40;99.90
67890;DHT22;54685;52.082;5.426;2023-02-01T16:19:19;8.40;99.90
67890;DHT22;54685;52.082;5.426;2023-02-01T16:21:46;8.40;99.90
67890;DHT22;54685;52.082;5.426;2023-02-01T16:24:13;8.50;99.90
67890;DHT22;54685;52.082;5.426;2023-02-01T16:26:42;8.40;99.90
67890;DHT22;54685;52.082;5.426;2023-02-01T16:29:09;8.40;99.90
67890;DHT22;54685;52.082;5.426;2023-02-01T16:31:38;8.40;99.90
67890;DHT22;54685;52.082;5.426;2023-02-01T16:34:06;8.40;99.90
67890;DHT22;54685;52.082;5.426;2023-02-01T16:36:35;8.40;99.90
67890;DHT22;54685;52.082;5.426;2023-02-01T16:39:02;8.40;99.90
67890;DHT22;54685;52.082;5.426;2023-02-01T16:41:30;8.40;99.90
67890;DHT22;54685;52.082;5.426;2023-02-01T16:43:57;8.40;99.90
67890;DHT22;54685;52.082;5.426;2023-02-01T16:46:26;8.40;99.90
67890;DHT22;54685;52.082;5.426;2023-02-01T16:48:58;8.40;99.90
67890;DHT22;54685;52.082;5.426;2023-02-01T16:51:28;8.40;99.90
67890;DHT22;54685;52.082;5.426;2023-02-01T16:53:56;8.50;99.90
67890;DHT22;54685;52.082;5.426;2023-02-01T16:56:33;8.50;99.90
67890;DHT22;54685;52.082;5.426;2023-02-01T16:59:00;8.50;99.90
67890;DHT22;54685;52.082;5.426;2023-02-01T17:01:27;8.50;99.90
67890;DHT22;54685;52.082;5.426;2023-02-01T17:03:54;8.50;99.90
67890;DHT22;54685;52.082;5.426;2023-02-01T17:06:24;8.50;99.90
67890;DHT22;54685;52.082;5.426;2023-02-01T17:08:54;8.50;99.90
67890;DHT22;54685;52.082;5.426;2023-02-01T17:11:22;8.50;99.90
67890;DHT22;54685;52.082;5.426;2023-02-01T17:13:49;8.50;99.90
67890;DHT22;54685;52.082;5.426;2023-02-01T17:18:58;8.50;99.90
67890;DHT22;54685;52.082;5.426;2023-02-01T17:21:31;8.50;99.90
67890;DHT22;54685;52.082;5.426;2023-02-01T17:24:01;8.50;99.90
67890;DHT22;54685;52.082;5.426;2023-02-01T17:26:28;8.50;99.90
67890;DHT22;54685;52.082;5.426;2023-02-01T17:28:55;8.50;99.90
67890;DHT22;54685;52.082;5.426;2023-02-01T17:31:21;8.50;99.90
67890;DHT22;54685;52.082;5.426;2023-02-01T17:33:50;8.50;99.90
67890;DHT22;54685;52.082;5.426;2023-02-01T17:36:17;8.60;99.90
67890;DHT22;54685;52.082;5.426;2023-02-01T17:38:44;8.50;99.90
67890;DHT22;54685;52.082;5.426;2023-02-01T17:41:19;8.50;99.90
67890;DHT22;54685;52.082;5.426;2023-02-01T17:43:53;8.50;99.90
67890;DHT22;54685;52.082;5.426;2023-02-01T17:46:20;8.50;99.90
67890;DHT22;54685;52.082;5.426;2023-02-01T17:48:53;8.50;99.90
67890;DHT22;54685;52.082;5.426;2023-02-01T17:51:25;8.50;99.90
67890;DHT22;54685;52.082;5.426;2023-02-01T17:53:55;8.50;99.90
67890;DHT22;54685;52.082;5.426;2023-02-01T17:56:23;8.50;99.90
67890;DHT22;54685;52.082;5.426;2023-02-01T17:58:51;8.60;99.90
67890;DHT22;54685;52.082;5.426;2023-02-01T18:01:20;8.60;99.90
67890;DHT22;54685;52.082;5.426;2023-02-01T18:04:01;8.50;99.90
67890;DHT22;54685;52.082;5.426;2023-02-01T18:06:31;8.50;99.90
67890;DHT22;54685;52.082;5.426;2023-02-01T18:08:59;8.50;99.90
67890;DHT22;54685;52.082;5.426;2023-02-01T18:11:28;8.50;99.90
67890;DHT22;54685;52.082;5.426;2023-02-01T18:13:58;8.60;99.90
67890;DHT22;54685;52.082;5.426;2023-02-01T18:16:27;8.50;99.90
67890;DHT22;54685;52.082;5.426;2023-02-01T18:18:57;8.60;99.90
67890;DHT22;54685;52.082;5.426;2023-02-01T18:21:41;8.50;99.90
67890;DHT22;54685;52.082;5.426;2023-02-01T18:24:13;8.50;99.90
67890;DHT22;54685;52.082;5.426;2023-02-01T18:26:40;8.60;99.90
67890;DHT22;54685;52.082;5.426;2023-02-01T18:29:09;8.60;99.90
67890;DHT22;54685;52.082;5.426;2023-02-01T18:31:46;8.60;99.90
67890;DHT22;54685;52.082;5.426;2023-02-01T18:34:14;8.70;99.90
67890;DHT22;54685;52.082;5.426;2023-02-01T18:36:48;8.70;99.90
67890;DHT22;54685;52.082;5.426;2023-02-01T18:39:15;8.60;99.90
67890;DHT22;54685;52.082;5.426;2023-02-01T18:41:51;8.60;99.90
67890;DHT22;54685;52.082;5.426;2023-02-01T18:44:22;8.60;99.90
67890;DHT22;54685;52.082;5.426;2023-02-01T18:46:49;8.70;99.90
67890;DHT22;54685;52.082;5.426;2023-02-01T18:49:16;8.60;99.90
67890;DHT22;54685;52.082;5.426;2023-02-01T18:51:45;8.60;99.90
67890;DHT22;54685;52.082;5.426;2023-02-01T18:54:12;8.60;99.90